createdAt,value
2018-07-02T00:00:56.922Z,1009
2018-07-02T00:01:56.918Z,1008.96
2018-07-02T00:02:56.900Z,1008.94
2018-07-02T00:03:56.886Z,1008.97
2018-07-02T00:04:56.899Z,1008.92
2018-07-02T00:05:56.868Z,1008.91
2018-07-02T00:06:56.856Z,1008.9
2018-07-02T00:07:56.840Z,1008.91
2018-07-02T00:08:56.831Z,1008.88
2018-07-02T00:09:56.818Z,1008.85
2018-07-02T00:10:56.807Z,1008.91
2018-07-02T00:11:56.795Z,1008.89
2018-07-02T00:12:56.779Z,1008.9
2018-07-02T00:13:56.768Z,1008.87
2018-07-02T00:14:56.762Z,1008.87
2018-07-02T00:15:56.746Z,1008.84
2018-07-02T00:16:56.737Z,1008.87
2018-07-02T00:17:56.720Z,1008.84
2018-07-02T00:18:56.717Z,1008.84
2018-07-02T00:19:56.700Z,1008.8
2018-07-02T00:20:56.685Z,1008.79
2018-07-02T00:21:56.678Z,1008.77
2018-07-02T00:22:56.660Z,1008.79
2018-07-02T00:23:56.655Z,1008.75
2018-07-02T00:24:56.639Z,1008.77
2018-07-02T00:25:56.627Z,1008.77
2018-07-02T00:26:56.617Z,1008.74
2018-07-02T00:27:56.602Z,1008.71
2018-07-02T00:28:56.592Z,1008.7
2018-07-02T00:29:56.577Z,1008.73
2018-07-02T00:30:56.565Z,1008.69
2018-07-02T00:31:56.560Z,1008.71
2018-07-02T00:32:56.541Z,1008.68
2018-07-02T00:33:56.532Z,1008.65
2018-07-02T00:34:56.517Z,1008.66
2018-07-02T00:35:56.505Z,1008.65
2018-07-02T00:36:56.493Z,1008.64
2018-07-02T00:37:56.481Z,1008.63
2018-07-02T00:38:56.482Z,1008.64
2018-07-02T00:39:56.455Z,1008.6
2018-07-02T00:40:56.445Z,1008.61
2018-07-02T00:41:56.432Z,1008.6
2018-07-02T00:42:56.424Z,1008.57
2018-07-02T00:43:56.412Z,1008.55
2018-07-02T00:44:56.395Z,1008.58
2018-07-02T00:45:56.385Z,1008.57
2018-07-02T00:46:56.370Z,1008.55
2018-07-02T00:47:56.358Z,1008.55
2018-07-02T00:48:56.345Z,1008.56
2018-07-02T00:49:56.337Z,1008.53
2018-07-02T00:50:56.322Z,1008.49
2018-07-02T00:51:56.313Z,1008.51
2018-07-02T00:52:56.295Z,1008.49
2018-07-02T00:53:56.285Z,1008.48
2018-07-02T00:54:56.278Z,1008.48
2018-07-02T00:55:56.263Z,1008.42
2018-07-02T00:56:56.254Z,1008.41
2018-07-02T00:57:56.235Z,1008.44
2018-07-02T00:58:56.222Z,1008.46
2018-07-02T00:59:56.211Z,1008.44
2018-07-02T01:00:56.200Z,1008.49
2018-07-02T01:01:56.186Z,1008.48
2018-07-02T01:02:56.175Z,1008.48
2018-07-02T01:03:56.163Z,1008.46
2018-07-02T01:04:56.148Z,1008.5
2018-07-02T01:05:56.210Z,1008.49
2018-07-02T01:06:56.125Z,1008.5
2018-07-02T01:07:56.124Z,1008.51
2018-07-02T01:08:56.099Z,1008.51
2018-07-02T01:09:56.100Z,1008.5
2018-07-02T01:10:56.073Z,1008.43
2018-07-02T01:11:56.073Z,1008.42
2018-07-02T01:12:56.049Z,1008.46
2018-07-02T01:13:56.075Z,1008.44
2018-07-02T01:14:56.043Z,1008.45
2018-07-02T01:15:56.015Z,1008.44
2018-07-02T01:16:56.002Z,1008.45
2018-07-02T01:17:55.999Z,1008.45
2018-07-02T01:18:55.975Z,1008.51
2018-07-02T01:19:55.978Z,1008.51
2018-07-02T01:20:55.950Z,1008.51
2018-07-02T01:21:55.966Z,1008.5
2018-07-02T01:22:55.923Z,1008.45
2018-07-02T01:23:55.909Z,1008.46
2018-07-02T01:24:55.898Z,1008.46
2018-07-02T01:25:55.893Z,1008.45
2018-07-02T01:26:55.872Z,1008.44
2018-07-02T01:27:55.865Z,1008.42
2018-07-02T01:28:55.849Z,1008.37
2018-07-02T01:29:55.832Z,1008.37
2018-07-02T01:30:55.821Z,1008.34
2018-07-02T01:31:55.810Z,1008.33
2018-07-02T01:32:55.797Z,1008.32
2018-07-02T01:33:55.783Z,1008.33
2018-07-02T01:34:55.773Z,1008.32
2018-07-02T01:35:55.759Z,1008.3
2018-07-02T01:36:55.751Z,1008.3
2018-07-02T01:37:55.969Z,1008.35
2018-07-02T01:38:55.723Z,1008.33
2018-07-02T01:39:55.711Z,1008.33
2018-07-02T01:40:55.694Z,1008.37
2018-07-02T01:41:55.683Z,1008.36
2018-07-02T01:42:55.673Z,1008.37
2018-07-02T01:43:55.654Z,1008.37
2018-07-02T01:44:55.645Z,1008.4
2018-07-02T01:45:55.631Z,1008.42
2018-07-02T01:46:55.621Z,1008.39
2018-07-02T01:47:55.604Z,1008.42
2018-07-02T01:48:55.591Z,1008.39
2018-07-02T01:49:55.579Z,1008.44
2018-07-02T01:50:55.566Z,1008.39
2018-07-02T01:51:55.554Z,1008.41
2018-07-02T01:52:55.549Z,1008.35
2018-07-02T01:53:55.536Z,1008.39
2018-07-02T01:54:55.516Z,1008.39
2018-07-02T01:55:55.501Z,1008.42
2018-07-02T01:56:55.489Z,1008.37
2018-07-02T01:57:55.476Z,1008.37
2018-07-02T01:58:55.463Z,1008.37
2018-07-02T01:59:55.453Z,1008.4
2018-07-02T02:00:55.438Z,1008.41
2018-07-02T02:01:55.425Z,1008.43
2018-07-02T02:02:55.415Z,1008.42
2018-07-02T02:03:55.400Z,1008.42
2018-07-02T02:04:55.394Z,1008.48
2018-07-02T02:05:55.376Z,1008.43
2018-07-02T02:06:55.359Z,1008.46
2018-07-02T02:07:55.347Z,1008.47
2018-07-02T02:08:55.348Z,1008.47
2018-07-02T02:09:55.320Z,1008.51
2018-07-02T02:10:55.310Z,1008.46
2018-07-02T02:11:55.296Z,1008.42
2018-07-02T02:12:55.286Z,1008.46
2018-07-02T02:13:55.270Z,1008.48
2018-07-02T02:14:55.257Z,1008.48
2018-07-02T02:15:55.245Z,1008.45
2018-07-02T02:16:55.230Z,1008.44
2018-07-02T02:17:55.221Z,1008.43
2018-07-02T02:18:55.207Z,1008.41
2018-07-02T02:19:55.193Z,1008.42
2018-07-02T02:20:55.184Z,1008.43
2018-07-02T02:21:55.166Z,1008.44
2018-07-02T02:22:55.212Z,1008.45
2018-07-02T02:23:55.139Z,1008.46
2018-07-02T02:24:55.130Z,1008.43
2018-07-02T02:25:55.115Z,1008.41
2018-07-02T02:26:55.101Z,1008.45
2018-07-02T02:27:55.088Z,1008.46
2018-07-02T02:28:55.081Z,1008.44
2018-07-02T02:29:55.064Z,1008.47
2018-07-02T02:30:55.052Z,1008.44
2018-07-02T02:31:55.034Z,1008.43
2018-07-02T02:32:55.023Z,1008.48
2018-07-02T02:33:55.020Z,1008.47
2018-07-02T02:34:55.003Z,1008.46
2018-07-02T02:35:54.982Z,1008.44
2018-07-02T02:36:54.974Z,1008.45
2018-07-02T02:37:54.962Z,1008.49
2018-07-02T02:38:54.941Z,1008.48
2018-07-02T02:39:54.931Z,1008.57
2018-07-02T02:40:54.917Z,1008.49
2018-07-02T02:41:54.904Z,1008.51
2018-07-02T02:42:54.902Z,1008.54
2018-07-02T02:43:54.880Z,1008.53
2018-07-02T02:44:54.866Z,1008.55
2018-07-02T02:45:54.855Z,1008.52
2018-07-02T02:46:54.839Z,1008.53
2018-07-02T02:47:54.833Z,1008.56
2018-07-02T02:48:54.811Z,1008.55
2018-07-02T02:49:54.800Z,1008.53
2018-07-02T02:50:54.788Z,1008.53
2018-07-02T02:51:54.772Z,1008.5
2018-07-02T02:52:54.760Z,1008.51
2018-07-02T02:53:54.748Z,1008.51
2018-07-02T02:54:54.731Z,1008.49
2018-07-02T02:55:54.720Z,1008.48
2018-07-02T02:56:54.706Z,1008.44
2018-07-02T02:57:54.694Z,1008.5
2018-07-02T02:58:54.680Z,1008.48
2018-07-02T02:59:54.666Z,1008.54
2018-07-02T03:00:54.651Z,1008.55
2018-07-02T03:01:54.640Z,1008.58
2018-07-02T03:02:54.625Z,1008.6
2018-07-02T03:03:54.612Z,1008.63
2018-07-02T03:04:54.598Z,1008.65
2018-07-02T03:05:54.583Z,1008.71
2018-07-02T03:06:54.622Z,1008.71
2018-07-02T03:07:54.559Z,1008.73
2018-07-02T03:08:54.550Z,1008.75
2018-07-02T03:09:54.534Z,1008.73
2018-07-02T03:10:54.518Z,1008.71
2018-07-02T03:11:54.505Z,1008.72
2018-07-02T03:12:54.491Z,1008.74
2018-07-02T03:13:54.478Z,1008.72
2018-07-02T03:14:54.464Z,1008.75
2018-07-02T03:15:54.450Z,1008.72
2018-07-02T03:16:54.463Z,1008.74
2018-07-02T03:17:54.427Z,1008.7
2018-07-02T03:18:54.412Z,1008.67
2018-07-02T03:19:54.399Z,1008.67
2018-07-02T03:20:54.388Z,1008.64
2018-07-02T03:21:54.370Z,1008.64
2018-07-02T03:22:54.357Z,1008.64
2018-07-02T03:23:54.344Z,1008.63
2018-07-02T03:24:54.332Z,1008.62
2018-07-02T03:25:54.316Z,1008.63
2018-07-02T03:26:54.301Z,1008.62
2018-07-02T03:27:54.288Z,1008.6
2018-07-02T03:28:54.277Z,1008.63
2018-07-02T03:29:54.264Z,1008.62
2018-07-02T03:30:54.283Z,1008.6
2018-07-02T03:31:54.240Z,1008.58
2018-07-02T03:32:54.223Z,1008.55
2018-07-02T03:33:54.211Z,1008.56
2018-07-02T03:34:54.193Z,1008.55
2018-07-02T03:35:54.187Z,1008.55
2018-07-02T03:36:54.166Z,1008.56
2018-07-02T03:37:54.357Z,1008.61
2018-07-02T03:38:54.143Z,1008.61
2018-07-02T03:39:54.127Z,1008.61
2018-07-02T03:40:54.113Z,1008.61
2018-07-02T03:41:54.098Z,1008.62
2018-07-02T03:42:54.085Z,1008.57
2018-07-02T03:43:54.075Z,1008.58
2018-07-02T03:44:54.059Z,1008.55
2018-07-02T03:45:54.048Z,1008.54
2018-07-02T03:46:54.031Z,1008.55
2018-07-02T03:47:54.019Z,1008.53
2018-07-02T03:48:54.004Z,1008.57
2018-07-02T03:49:53.990Z,1008.58
2018-07-02T03:50:53.977Z,1008.59
2018-07-02T03:51:53.967Z,1008.6
2018-07-02T03:52:53.952Z,1008.63
2018-07-02T03:53:53.937Z,1008.7
2018-07-02T03:54:53.923Z,1008.67
2018-07-02T03:55:53.908Z,1008.65
2018-07-02T03:56:53.899Z,1008.67
2018-07-02T03:57:53.887Z,1008.72
2018-07-02T03:58:53.872Z,1008.7
2018-07-02T03:59:53.855Z,1008.69
2018-07-02T04:00:53.851Z,1008.74
2018-07-02T04:01:53.833Z,1008.72
2018-07-02T04:02:53.816Z,1008.7
2018-07-02T04:03:53.800Z,1008.67
2018-07-02T04:04:53.787Z,1008.69
2018-07-02T04:05:53.774Z,1008.67
2018-07-02T04:06:53.759Z,1008.64
2018-07-02T04:07:53.747Z,1008.66
2018-07-02T04:08:53.733Z,1008.64
2018-07-02T04:09:53.717Z,1008.64
2018-07-02T04:10:53.706Z,1008.62
2018-07-02T04:11:53.696Z,1008.65
2018-07-02T04:12:53.685Z,1008.66
2018-07-02T04:13:53.670Z,1008.72
2018-07-02T04:14:53.651Z,1008.73
2018-07-02T04:15:53.636Z,1008.77
2018-07-02T04:16:53.631Z,1008.78
2018-07-02T04:17:53.608Z,1008.83
2018-07-02T04:18:53.596Z,1008.84
2018-07-02T04:19:53.584Z,1008.87
2018-07-02T04:20:53.570Z,1008.9
2018-07-02T04:21:53.555Z,1008.9
2018-07-02T04:22:53.542Z,1008.94
2018-07-02T04:23:53.528Z,1008.9
2018-07-02T04:24:53.513Z,1008.88
2018-07-02T04:25:53.542Z,1008.98
2018-07-02T04:26:53.489Z,1008.95
2018-07-02T04:27:53.485Z,1008.91
2018-07-02T04:28:53.486Z,1008.92
2018-07-02T04:29:53.447Z,1008.9
2018-07-02T04:30:53.436Z,1008.9
2018-07-02T04:31:53.421Z,1008.89
2018-07-02T04:32:53.407Z,1008.93
2018-07-02T04:33:53.392Z,1008.89
2018-07-02T04:34:53.379Z,1008.89
2018-07-02T04:35:53.365Z,1008.88
2018-07-02T04:36:53.353Z,1008.93
2018-07-02T04:37:53.337Z,1008.9
2018-07-02T04:38:53.328Z,1008.92
2018-07-02T04:39:53.311Z,1008.93
2018-07-02T04:40:53.299Z,1008.96
2018-07-02T04:41:53.284Z,1008.99
2018-07-02T04:42:53.278Z,1008.99
2018-07-02T04:43:53.257Z,1008.98
2018-07-02T04:44:53.248Z,1008.95
2018-07-02T04:45:53.229Z,1008.96
2018-07-02T04:46:53.217Z,1008.94
2018-07-02T04:47:53.698Z,1008.97
2018-07-02T04:48:53.198Z,1008.97
2018-07-02T04:49:53.177Z,1008.99
2018-07-02T04:50:53.163Z,1009.01
2018-07-02T04:51:53.150Z,1009.02
2018-07-02T04:52:53.137Z,1009.02
2018-07-02T04:53:53.124Z,1009.01
2018-07-02T04:54:53.109Z,1009.01
2018-07-02T04:55:53.099Z,1009
2018-07-02T04:56:53.083Z,1008.98
2018-07-02T04:57:53.074Z,1009.03
2018-07-02T04:58:53.057Z,1008.98
2018-07-02T04:59:53.048Z,1008.99
2018-07-02T05:00:53.035Z,1008.98
2018-07-02T05:01:53.018Z,1008.95
2018-07-02T05:02:53.003Z,1008.99
2018-07-02T05:03:52.992Z,1009
2018-07-02T05:04:52.975Z,1009.01
2018-07-02T05:05:52.966Z,1009.02
2018-07-02T05:06:52.956Z,1009.04
2018-07-02T05:07:52.939Z,1009.04
2018-07-02T05:08:52.928Z,1009.03
2018-07-02T05:09:52.914Z,1009.05
2018-07-02T05:10:52.897Z,1009.06
2018-07-02T05:11:52.886Z,1009.06
2018-07-02T05:12:52.888Z,1009.1
2018-07-02T05:13:52.859Z,1009.08
2018-07-02T05:14:52.854Z,1009.1
2018-07-02T05:15:52.833Z,1009.11
2018-07-02T05:16:52.862Z,1009.09
2018-07-02T05:17:52.807Z,1009.13
2018-07-02T05:18:52.796Z,1009.07
2018-07-02T05:19:52.780Z,1009.07
2018-07-02T05:20:52.769Z,1009.1
2018-07-02T05:21:52.754Z,1009.1
2018-07-02T05:22:52.744Z,1009.1
2018-07-02T05:23:52.728Z,1009.1
2018-07-02T05:24:52.716Z,1009.04
2018-07-02T05:25:52.705Z,1009.09
2018-07-02T05:26:52.691Z,1009.07
2018-07-02T05:27:52.677Z,1009.1
2018-07-02T05:28:52.669Z,1009.11
2018-07-02T05:29:52.652Z,1009.13
2018-07-02T05:30:52.644Z,1009.1
2018-07-02T05:31:52.628Z,1009.04
2018-07-02T05:32:52.617Z,1009.07
2018-07-02T05:33:52.605Z,1009.08
2018-07-02T05:34:52.589Z,1009.05
2018-07-02T05:35:52.575Z,1009.04
2018-07-02T05:36:52.564Z,1009.04
2018-07-02T05:37:52.756Z,1009.03
2018-07-02T05:38:52.563Z,1008.99
2018-07-02T05:39:52.525Z,1008.98
2018-07-02T05:40:52.510Z,1008.95
2018-07-02T05:41:52.499Z,1008.94
2018-07-02T05:42:52.485Z,1008.96
2018-07-02T05:43:52.473Z,1008.94
2018-07-02T05:44:52.461Z,1008.93
2018-07-02T05:45:52.448Z,1008.95
2018-07-02T05:46:52.437Z,1008.93
2018-07-02T05:47:52.426Z,1008.89
2018-07-02T05:48:52.413Z,1008.86
2018-07-02T05:49:52.403Z,1008.87
2018-07-02T05:50:52.388Z,1008.85
2018-07-02T05:51:52.380Z,1008.85
2018-07-02T05:52:52.363Z,1008.86
2018-07-02T05:53:52.352Z,1008.86
2018-07-02T05:54:52.345Z,1008.83
2018-07-02T05:55:52.326Z,1008.87
2018-07-02T05:56:52.322Z,1008.84
2018-07-02T05:57:52.308Z,1008.86
2018-07-02T05:58:52.291Z,1008.81
2018-07-02T05:59:52.277Z,1008.84
2018-07-02T06:00:52.264Z,1008.85
2018-07-02T06:01:52.254Z,1008.83
2018-07-02T06:02:52.243Z,1008.86
2018-07-02T06:03:52.231Z,1008.84
2018-07-02T06:04:52.216Z,1008.82
2018-07-02T06:05:52.206Z,1008.83
2018-07-02T06:06:52.193Z,1008.83
2018-07-02T06:07:52.214Z,1008.83
2018-07-02T06:08:52.171Z,1008.9
2018-07-02T06:09:52.158Z,1008.84
2018-07-02T06:10:52.147Z,1008.87
2018-07-02T06:11:52.134Z,1008.88
2018-07-02T06:12:52.123Z,1008.86
2018-07-02T06:13:52.114Z,1008.89
2018-07-02T06:14:52.097Z,1008.89
2018-07-02T06:15:52.090Z,1008.93
2018-07-02T06:16:52.085Z,1008.94
2018-07-02T06:17:52.068Z,1008.92
2018-07-02T06:18:52.053Z,1008.95
2018-07-02T06:19:52.047Z,1008.92
2018-07-02T06:20:52.049Z,1008.93
2018-07-02T06:21:52.017Z,1008.93
2018-07-02T06:22:52.009Z,1009.02
2018-07-02T06:23:51.996Z,1009.06
2018-07-02T06:24:52.089Z,1009.12
2018-07-02T06:25:51.973Z,1009.12
2018-07-02T06:26:51.963Z,1009.03
2018-07-02T06:27:51.952Z,1009
2018-07-02T06:28:51.942Z,1008.97
2018-07-02T06:29:51.937Z,1008.93
2018-07-02T06:30:51.923Z,1008.92
2018-07-02T06:31:51.915Z,1008.9
2018-07-02T06:32:51.901Z,1008.93
2018-07-02T06:33:51.893Z,1008.91
2018-07-02T06:34:51.883Z,1008.91
2018-07-02T06:35:51.880Z,1008.94
2018-07-02T06:36:51.865Z,1008.92
2018-07-02T06:37:51.851Z,1008.91
2018-07-02T06:38:51.843Z,1008.96
2018-07-02T06:39:51.829Z,1008.95
2018-07-02T06:40:51.820Z,1008.97
2018-07-02T06:41:51.809Z,1008.99
2018-07-02T06:42:51.803Z,1008.98
2018-07-02T06:43:51.789Z,1009.01
2018-07-02T06:44:51.780Z,1008.99
2018-07-02T06:45:51.769Z,1009.03
2018-07-02T06:46:51.758Z,1009.01
2018-07-02T06:47:51.751Z,1009.03
2018-07-02T06:48:51.740Z,1009.16
2018-07-02T06:49:51.729Z,1009.31
2018-07-02T06:50:51.718Z,1009.32
2018-07-02T06:51:51.708Z,1009.33
2018-07-02T06:52:51.698Z,1009.31
2018-07-02T06:53:51.689Z,1009.27
2018-07-02T06:54:51.680Z,1009.16
2018-07-02T06:55:51.671Z,1009.14
2018-07-02T06:56:51.663Z,1009.14
2018-07-02T06:57:51.655Z,1009.08
2018-07-02T06:58:51.648Z,1009.1
2018-07-02T06:59:51.638Z,1009.13
2018-07-02T07:00:51.632Z,1009.12
2018-07-02T07:01:51.625Z,1009.15
2018-07-02T07:02:51.614Z,1009.15
2018-07-02T07:03:51.605Z,1009.13
2018-07-02T07:04:51.597Z,1009.15
2018-07-02T07:05:51.589Z,1009.15
2018-07-02T07:06:51.580Z,1009.14
2018-07-02T07:07:51.574Z,1009.17
2018-07-02T07:08:51.563Z,1009.15
2018-07-02T07:09:51.557Z,1009.17
2018-07-02T07:10:51.547Z,1009.2
2018-07-02T07:11:51.539Z,1009.2
2018-07-02T07:12:51.534Z,1009.22
2018-07-02T07:13:51.525Z,1009.27
2018-07-02T07:14:51.514Z,1009.32
2018-07-02T07:15:51.506Z,1009.41
2018-07-02T07:16:51.517Z,1009.43
2018-07-02T07:17:51.489Z,1009.45
2018-07-02T07:18:51.484Z,1009.46
2018-07-02T07:19:51.476Z,1009.44
2018-07-02T07:20:51.467Z,1009.46
2018-07-02T07:21:51.460Z,1009.53
2018-07-02T07:22:51.461Z,1009.52
2018-07-02T07:23:51.449Z,1009.53
2018-07-02T07:24:51.444Z,1009.48
2018-07-02T07:25:51.518Z,1009.54
2018-07-02T07:26:51.435Z,1009.51
2018-07-02T07:27:51.430Z,1009.5
2018-07-02T07:28:51.430Z,1009.54
2018-07-02T07:29:51.421Z,1009.57
2018-07-02T07:30:51.417Z,1009.54
2018-07-02T07:31:51.414Z,1009.57
2018-07-02T07:32:51.414Z,1009.59
2018-07-02T07:33:51.409Z,1009.57
2018-07-02T07:34:51.403Z,1009.52
2018-07-02T07:35:51.407Z,1009.62
2018-07-02T07:36:51.401Z,1009.56
2018-07-02T07:37:51.398Z,1009.53
2018-07-02T07:38:51.397Z,1009.61
2018-07-02T07:39:51.394Z,1009.59
2018-07-02T07:40:51.394Z,1009.64
2018-07-02T07:41:51.390Z,1009.58
2018-07-02T07:42:51.389Z,1009.63
2018-07-02T07:43:51.388Z,1009.61
2018-07-02T07:44:51.484Z,1009.66
2018-07-02T07:45:51.387Z,1009.67
2018-07-02T07:46:51.391Z,1009.66
2018-07-02T07:47:51.399Z,1009.69
2018-07-02T07:48:51.391Z,1009.68
2018-07-02T07:49:51.389Z,1009.66
2018-07-02T07:50:51.393Z,1009.65
2018-07-02T07:51:51.390Z,1009.65
2018-07-02T07:52:51.387Z,1009.69
2018-07-02T07:53:51.395Z,1009.68
2018-07-02T07:54:51.391Z,1009.71
2018-07-02T07:55:51.390Z,1009.62
2018-07-02T07:56:51.390Z,1009.65
2018-07-02T07:57:51.395Z,1009.66
2018-07-02T07:58:51.399Z,1009.75
2018-07-02T07:59:51.393Z,1009.71
2018-07-02T08:00:51.408Z,1009.68
2018-07-02T08:01:51.396Z,1009.75
2018-07-02T08:02:51.399Z,1009.76
2018-07-02T08:03:51.406Z,1009.76
2018-07-02T08:04:51.408Z,1009.75
2018-07-02T08:05:51.410Z,1009.77
2018-07-02T08:06:51.407Z,1009.83
2018-07-02T08:07:51.409Z,1009.79
2018-07-02T08:08:51.411Z,1009.83
2018-07-02T08:09:51.417Z,1009.74
2018-07-02T08:10:51.419Z,1009.82
2018-07-02T08:11:51.422Z,1009.83
2018-07-02T08:12:51.421Z,1009.92
2018-07-02T08:13:51.422Z,1009.89
2018-07-02T08:14:51.425Z,1009.85
2018-07-02T08:15:51.432Z,1009.84
2018-07-02T08:16:51.434Z,1009.87
2018-07-02T08:17:51.435Z,1009.87
2018-07-02T08:18:51.500Z,1009.88
2018-07-02T08:19:51.440Z,1009.85
2018-07-02T08:20:51.443Z,1009.8
2018-07-02T08:21:51.448Z,1009.83
2018-07-02T08:22:51.451Z,1009.85
2018-07-02T08:23:51.455Z,1009.78
2018-07-02T08:24:51.464Z,1009.78
2018-07-02T08:25:51.461Z,1009.8
2018-07-02T08:26:51.464Z,1009.83
2018-07-02T08:27:51.469Z,1009.8
2018-07-02T08:28:51.473Z,1009.83
2018-07-02T08:29:51.478Z,1009.81
2018-07-02T08:30:51.480Z,1009.73
2018-07-02T08:31:51.482Z,1009.79
2018-07-02T08:32:51.500Z,1009.61
2018-07-02T08:33:51.493Z,1009.72
2018-07-02T08:34:51.497Z,1009.74
2018-07-02T08:35:51.498Z,1009.74
2018-07-02T08:36:51.501Z,1009.88
2018-07-02T08:37:51.505Z,1009.76
2018-07-02T08:38:51.514Z,1009.74
2018-07-02T08:39:51.509Z,1009.63
2018-07-02T08:40:51.511Z,1009.83
2018-07-02T08:41:51.514Z,1009.9
2018-07-02T08:42:51.515Z,1009.58
2018-07-02T08:43:51.516Z,1009.49
2018-07-02T08:44:51.520Z,1009.49
2018-07-02T08:45:51.520Z,1009.49
2018-07-02T08:46:51.555Z,1009.47
2018-07-02T08:47:51.521Z,1009.42
2018-07-02T08:48:51.524Z,1009.59
2018-07-02T08:49:51.521Z,1009.36
2018-07-02T08:50:51.523Z,1009.33
2018-07-02T08:51:51.523Z,1009.37
2018-07-02T08:52:51.525Z,1009.34
2018-07-02T08:53:51.523Z,1009.38
2018-07-02T08:54:51.520Z,1009.28
2018-07-02T08:55:51.522Z,1009.45
2018-07-02T08:56:51.517Z,1009.6
2018-07-02T08:57:51.517Z,1009.75
2018-07-02T08:58:51.516Z,1009.96
2018-07-02T08:59:51.510Z,1010.03
2018-07-02T09:00:51.514Z,1009.31
2018-07-02T09:01:51.516Z,1010.04
2018-07-02T09:02:51.506Z,1010
2018-07-02T09:03:51.509Z,1010
2018-07-02T09:04:51.506Z,1009.97
2018-07-02T09:05:51.500Z,1009.98
2018-07-02T09:06:51.544Z,1009.98
2018-07-02T09:07:51.501Z,1010.04
2018-07-02T09:08:51.500Z,1010.07
2018-07-02T09:09:51.499Z,1010.06
2018-07-02T09:10:51.500Z,1010.07
2018-07-02T09:11:51.500Z,1010.05
2018-07-02T09:12:51.501Z,1010.12
2018-07-02T09:13:51.506Z,1010.15
2018-07-02T09:14:51.508Z,1009.99
2018-07-02T09:15:51.506Z,1009.97
2018-07-02T09:16:51.507Z,1010.07
2018-07-02T09:17:51.508Z,1010
2018-07-02T09:18:51.515Z,1010.16
2018-07-02T09:19:51.516Z,1009.59
2018-07-02T09:20:51.515Z,1009.82
2018-07-02T09:21:51.518Z,1009.67
2018-07-02T09:22:51.522Z,1009.33
2018-07-02T09:23:51.600Z,1009.47
2018-07-02T09:24:51.527Z,1009.66
2018-07-02T09:25:51.529Z,1009.49
2018-07-02T09:26:51.531Z,1009.45
2018-07-02T09:27:51.534Z,1009.37
2018-07-02T09:28:51.532Z,1009.32
2018-07-02T09:29:51.543Z,1009.28
2018-07-02T09:30:51.535Z,1009.25
2018-07-02T09:31:51.539Z,1009.42
2018-07-02T09:32:51.545Z,1009.22
2018-07-02T09:33:51.538Z,1009.59
2018-07-02T09:34:51.544Z,1009.5
2018-07-02T09:35:51.537Z,1009.34
2018-07-02T09:36:51.537Z,1009.48
2018-07-02T09:37:51.538Z,1009.72
2018-07-02T09:38:51.541Z,1009.88
2018-07-02T09:39:51.538Z,1009.75
2018-07-02T09:40:51.539Z,1009.86
2018-07-02T09:41:51.540Z,1009.5
2018-07-02T09:42:51.540Z,1009.47
2018-07-02T09:43:51.544Z,1009.47
2018-07-02T09:44:51.542Z,1009.3
2018-07-02T09:45:51.546Z,1009.85
2018-07-02T09:46:51.557Z,1009.24
2018-07-02T09:47:51.542Z,1009.29
2018-07-02T09:48:51.546Z,1009.32
2018-07-02T09:49:51.548Z,1009.87
2018-07-02T09:50:51.547Z,1009.28
2018-07-02T09:51:51.549Z,1009.35
2018-07-02T09:52:51.550Z,1009.32
2018-07-02T09:53:51.548Z,1009.2
2018-07-02T09:54:51.552Z,1009.27
2018-07-02T09:55:51.550Z,1009.28
2018-07-02T09:56:51.554Z,1009.33
2018-07-02T09:57:51.550Z,1009.24
2018-07-02T09:58:51.548Z,1009.25
2018-07-02T09:59:51.559Z,1009.24
2018-07-02T10:00:51.547Z,1009.17
2018-07-02T10:01:51.546Z,1009.25
2018-07-02T10:02:51.546Z,1009.23
2018-07-02T10:03:51.544Z,1009.16
2018-07-02T10:04:51.555Z,1009.23
2018-07-02T10:05:51.537Z,1009.35
2018-07-02T10:06:51.535Z,1009.16
2018-07-02T10:07:51.532Z,1009.1
2018-07-02T10:08:51.531Z,1009.13
2018-07-02T10:09:51.527Z,1009.29
2018-07-02T10:10:51.526Z,1009.14
2018-07-02T10:11:51.529Z,1009.27
2018-07-02T10:12:51.533Z,1009.14
2018-07-02T10:13:51.518Z,1009.12
2018-07-02T10:14:51.515Z,1009.22
2018-07-02T10:15:51.516Z,1009.29
2018-07-02T10:16:51.510Z,1009.12
2018-07-02T10:17:51.512Z,1009.14
2018-07-02T10:18:51.502Z,1009.13
2018-07-02T10:19:51.501Z,1009.35
2018-07-02T10:20:51.498Z,1009.44
2018-07-02T10:21:51.498Z,1009.2
2018-07-02T10:22:51.512Z,1009.6
2018-07-02T10:23:51.543Z,1009.44
2018-07-02T10:24:51.490Z,1009.57
2018-07-02T10:25:51.491Z,1009.39
2018-07-02T10:26:51.489Z,1009.54
2018-07-02T10:27:51.481Z,1009.65
2018-07-02T10:28:51.481Z,1009.49
2018-07-02T10:29:51.480Z,1009.61
2018-07-02T10:30:51.510Z,1009.73
2018-07-02T10:31:51.479Z,1009.64
2018-07-02T10:32:51.478Z,1009.61
2018-07-02T10:33:51.477Z,1009.67
2018-07-02T10:34:51.538Z,1009.62
2018-07-02T10:35:51.487Z,1009.65
2018-07-02T10:36:51.483Z,1009.6
2018-07-02T10:37:51.483Z,1009.59
2018-07-02T10:38:51.485Z,1009.52
2018-07-02T10:39:51.533Z,1009.54
2018-07-02T10:40:51.495Z,1009.58
2018-07-02T10:41:51.494Z,1009.57
2018-07-02T10:42:51.496Z,1009.64
2018-07-02T10:43:51.502Z,1009.57
2018-07-02T10:44:51.503Z,1009.55
2018-07-02T10:45:51.509Z,1009.51
2018-07-02T10:46:51.514Z,1009.46
2018-07-02T10:47:51.519Z,1009.36
2018-07-02T10:48:51.523Z,1009.35
2018-07-02T10:49:51.528Z,1009.3
2018-07-02T10:50:51.535Z,1009.29
2018-07-02T10:51:51.542Z,1009.29
2018-07-02T10:52:51.552Z,1009.24
2018-07-02T10:53:51.558Z,1009.27
2018-07-02T10:54:51.559Z,1009.24
2018-07-02T10:55:51.564Z,1009.23
2018-07-02T10:56:51.572Z,1009.23
2018-07-02T10:57:51.575Z,1009.19
2018-07-02T10:58:51.582Z,1009.2
2018-07-02T10:59:51.590Z,1009.22
2018-07-02T11:00:51.597Z,1009.14
2018-07-02T11:01:51.605Z,1009.14
2018-07-02T11:02:51.607Z,1009.15
2018-07-02T11:03:51.618Z,1009.12
2018-07-02T11:04:51.624Z,1009.09
2018-07-02T11:05:51.629Z,1009.14
2018-07-02T11:06:51.637Z,1009.15
2018-07-02T11:07:51.644Z,1009.17
2018-07-02T11:08:51.655Z,1009.17
2018-07-02T11:09:51.659Z,1009.11
2018-07-02T11:10:51.665Z,1009.1
2018-07-02T11:11:51.672Z,1009.13
2018-07-02T11:12:51.682Z,1009.14
2018-07-02T11:13:51.688Z,1009.1
2018-07-02T11:14:51.695Z,1009.07
2018-07-02T11:15:51.703Z,1009.03
2018-07-02T11:16:51.710Z,1009.03
2018-07-02T11:17:51.718Z,1008.99
2018-07-02T11:18:51.724Z,1009.05
2018-07-02T11:19:51.732Z,1009.11
2018-07-02T11:20:51.748Z,1009.07
2018-07-02T11:21:51.748Z,1009.05
2018-07-02T11:22:51.754Z,1009.08
2018-07-02T11:23:51.765Z,1009.06
2018-07-02T11:24:51.775Z,1009.1
2018-07-02T11:25:51.780Z,1009.04
2018-07-02T11:26:51.790Z,1009.04
2018-07-02T11:27:51.797Z,1009.04
2018-07-02T11:28:51.806Z,1009.04
2018-07-02T11:29:51.811Z,1009.04
2018-07-02T11:30:51.822Z,1009.02
2018-07-02T11:31:51.830Z,1008.97
2018-07-02T11:32:51.836Z,1008.9
2018-07-02T11:33:51.845Z,1008.93
2018-07-02T11:34:51.855Z,1008.99
2018-07-02T11:35:51.863Z,1009
2018-07-02T11:36:51.871Z,1008.91
2018-07-02T11:37:51.896Z,1008.93
2018-07-02T11:38:52.091Z,1008.93
2018-07-02T11:39:51.903Z,1008.9
2018-07-02T11:40:51.903Z,1008.91
2018-07-02T11:41:51.913Z,1008.93
2018-07-02T11:42:51.921Z,1008.92
2018-07-02T11:43:51.936Z,1008.92
2018-07-02T11:44:51.939Z,1008.93
2018-07-02T11:45:51.949Z,1008.87
2018-07-02T11:46:51.955Z,1008.87
2018-07-02T11:47:51.964Z,1008.87
2018-07-02T11:48:51.973Z,1008.81
2018-07-02T11:49:51.985Z,1008.88
2018-07-02T11:50:51.995Z,1008.88
2018-07-02T11:51:52.001Z,1008.89
2018-07-02T11:52:52.009Z,1008.88
2018-07-02T11:53:52.019Z,1008.89
2018-07-02T11:54:52.028Z,1008.93
2018-07-02T11:55:52.036Z,1008.88
2018-07-02T11:56:52.046Z,1008.88
2018-07-02T11:57:52.057Z,1008.89
2018-07-02T11:58:52.062Z,1008.82
2018-07-02T11:59:52.071Z,1008.89
2018-07-02T12:00:52.081Z,1008.89
2018-07-02T12:01:52.100Z,1008.83
2018-07-02T12:02:52.103Z,1008.89
2018-07-02T12:03:52.108Z,1008.8
2018-07-02T12:04:52.116Z,1008.92
2018-07-02T12:05:52.127Z,1008.91
2018-07-02T12:06:52.134Z,1008.87
2018-07-02T12:07:52.141Z,1008.88
2018-07-02T12:08:52.152Z,1008.9